KFFO

Currently at 14:00 EDT
TEMP
82°F
FEELS LIKE
83°F
HUMIDITY
51%%
DEW POINT
63°F
WIND  
NNW
9
MPH
BAROMETER
29.96  
IN

METAR KFFO 131800Z 34008KT 10SM FEW042 28/17 A2996 RMK AO2A SLP143

ADDS  |   NWS

MoDaWx  |   KI19  |   KFFO
Free Web Hosting